createdAt,value
2022-08-20T00:00:21.175Z,26.57
2022-08-20T00:01:43.311Z,24.80
2022-08-20T00:03:10.249Z,26.43
2022-08-20T00:04:32.330Z,21.27
2022-08-20T00:05:59.213Z,24.70
2022-08-20T00:07:21.244Z,26.30
2022-08-20T00:08:44.755Z,27.53
2022-08-20T00:10:09.573Z,25.70
2022-08-20T00:11:33.595Z,27.47
2022-08-20T00:12:56.533Z,27.33
2022-08-20T00:14:18.663Z,23.77
2022-08-20T00:15:41.598Z,28.80
2022-08-20T00:17:05.397Z,24.67
2022-08-20T00:18:27.755Z,23.97
2022-08-20T00:19:49.813Z,28.53
2022-08-20T00:21:19.145Z,22.10
2022-08-20T00:22:41.469Z,25.33
2022-08-20T00:24:04.936Z,24.73
2022-08-20T00:25:28.607Z,22.77
2022-08-20T00:26:51.686Z,26.77
2022-08-20T00:28:15.304Z,24.20
2022-08-20T00:29:37.371Z,21.03
2022-08-20T00:30:59.975Z,22.20
2022-08-20T00:32:22.097Z,23.80
2022-08-20T00:33:44.811Z,16.90
2022-08-20T00:35:07.247Z,19.20
2022-08-20T00:36:35.186Z,20.37
2022-08-20T00:38:00.512Z,21.67
2022-08-20T00:39:23.023Z,19.80
2022-08-20T00:40:55.177Z,21.27
2022-08-20T00:42:17.246Z,15.20
2022-08-20T00:44:04.423Z,14.90
2022-08-20T00:45:29.186Z,22.90
2022-08-20T00:46:52.513Z,20.70
2022-08-20T00:48:14.563Z,22.70
2022-08-20T00:49:36.730Z,19.97
2022-08-20T00:51:05.803Z,24.27
2022-08-20T00:52:28.024Z,19.80
2022-08-20T00:53:50.297Z,22.20
2022-08-20T00:55:12.716Z,28.37
2022-08-20T00:56:36.309Z,24.03
2022-08-20T00:58:02.060Z,21.80
2022-08-20T00:59:27.742Z,20.10
2022-08-20T01:00:50.718Z,26.60
2022-08-20T01:02:16.135Z,30.53
2022-08-20T01:03:38.497Z,23.80
2022-08-20T01:05:01.186Z,25.33
2022-08-20T01:06:25.211Z,29.20
2022-08-20T01:07:48.359Z,33.50
2022-08-20T01:09:14.763Z,26.80
2022-08-20T01:10:41.220Z,35.90
2022-08-20T01:12:04.246Z,29.97
2022-08-20T01:13:26.949Z,34.90
2022-08-20T01:14:49.080Z,36.03
2022-08-20T01:16:26.563Z,29.90
2022-08-20T01:17:53.999Z,33.07
2022-08-20T01:19:29.357Z,38.63
2022-08-20T01:20:59.574Z,32.87
2022-08-20T01:22:50.876Z,35.00
2022-08-20T01:24:26.195Z,35.10
2022-08-20T01:26:23.641Z,37.40
2022-08-20T01:27:46.557Z,32.80
2022-08-20T01:29:24.349Z,33.63
2022-08-20T01:30:46.562Z,41.90
2022-08-20T01:32:08.915Z,29.57
2022-08-20T01:33:32.127Z,40.20
2022-08-20T01:34:54.188Z,36.20
2022-08-20T01:36:23.607Z,40.33
2022-08-20T01:37:45.709Z,42.87
2022-08-20T01:39:10.623Z,40.70
2022-08-20T01:41:11.567Z,45.67
2022-08-20T01:42:58.652Z,41.30
2022-08-20T01:44:22.673Z,43.77
2022-08-20T01:45:49.261Z,41.73
2022-08-20T01:47:15.209Z,52.33
2022-08-20T01:48:39.484Z,44.27
2022-08-20T01:50:13.370Z,48.30
2022-08-20T01:51:35.487Z,45.00
2022-08-20T01:53:16.272Z,44.53
2022-08-20T01:54:38.638Z,45.10
2022-08-20T01:56:02.897Z,48.30
2022-08-20T01:57:26.852Z,48.07
2022-08-20T01:58:55.880Z,50.07
2022-08-20T02:00:22.002Z,49.13
2022-08-20T02:01:46.374Z,51.27
2022-08-20T02:03:09.319Z,40.90
2022-08-20T02:04:31.396Z,44.87
2022-08-20T02:05:53.666Z,40.30
2022-08-20T02:07:20.031Z,42.17
2022-08-20T02:08:42.966Z,45.70
2022-08-20T02:10:08.016Z,46.10
2022-08-20T02:11:31.786Z,43.30
2022-08-20T02:12:54.448Z,36.70
2022-08-20T02:14:16.706Z,40.17
2022-08-20T02:15:39.664Z,44.40
2022-08-20T02:17:02.126Z,42.20
2022-08-20T02:18:24.220Z,42.27
2022-08-20T02:19:51.975Z,36.73
2022-08-20T02:21:14.113Z,39.10
2022-08-20T02:22:50.117Z,38.30
2022-08-20T02:24:13.115Z,34.10
2022-08-20T02:25:37.540Z,34.07
2022-08-20T02:27:00.296Z,36.60
2022-08-20T02:28:22.496Z,36.93
2022-08-20T02:29:45.134Z,38.83
2022-08-20T02:31:08.619Z,40.00
2022-08-20T02:32:34.008Z,41.77
2022-08-20T02:34:14.741Z,40.80
2022-08-20T02:35:42.690Z,42.80
2022-08-20T02:37:07.350Z,30.33
2022-08-20T02:38:29.880Z,38.53
2022-08-20T02:39:52.009Z,40.37
2022-08-20T02:41:15.293Z,39.20
2022-08-20T02:42:37.972Z,38.03
2022-08-20T02:44:00.062Z,38.60
2022-08-20T02:45:23.336Z,37.50
2022-08-20T02:46:45.400Z,33.93
2022-08-20T02:48:07.742Z,35.73
2022-08-20T02:49:29.874Z,43.23
2022-08-20T02:50:56.827Z,35.30
2022-08-20T02:52:18.891Z,40.23
2022-08-20T02:53:42.174Z,36.87
2022-08-20T02:55:04.669Z,35.27
2022-08-20T02:56:27.423Z,35.80
2022-08-20T02:57:49.543Z,38.80
2022-08-20T02:59:19.810Z,41.43
2022-08-20T03:00:42.928Z,40.90
2022-08-20T03:02:05.070Z,32.80
2022-08-20T03:03:27.162Z,36.00
2022-08-20T03:04:49.408Z,39.00
2022-08-20T03:06:12.877Z,35.93
2022-08-20T03:07:49.727Z,32.33
2022-08-20T03:09:11.875Z,34.70
2022-08-20T03:10:36.459Z,33.13
2022-08-20T03:11:59.294Z,37.73
2022-08-20T03:13:22.581Z,36.13
2022-08-20T03:14:44.683Z,35.00
2022-08-20T03:16:07.488Z,33.80
2022-08-20T03:17:29.673Z,32.90
2022-08-20T03:18:51.973Z,32.03
2022-08-20T03:20:15.195Z,34.13
2022-08-20T03:21:37.269Z,27.53
2022-08-20T03:22:59.475Z,33.43
2022-08-20T03:24:21.597Z,32.73
2022-08-20T03:25:44.017Z,31.40
2022-08-20T03:27:06.359Z,27.10
2022-08-20T03:28:29.555Z,30.77
2022-08-20T03:29:51.948Z,28.23
2022-08-20T03:31:15.346Z,27.43
2022-08-20T03:32:38.139Z,28.40
2022-08-20T03:34:00.465Z,28.20
2022-08-20T03:35:24.375Z,26.33
2022-08-20T03:36:46.564Z,25.93
2022-08-20T03:38:10.978Z,27.70
2022-08-20T03:39:33.139Z,28.73
2022-08-20T03:40:55.275Z,29.27
2022-08-20T03:42:17.341Z,29.67
2022-08-20T03:43:41.072Z,35.80
2022-08-20T03:45:04.213Z,28.80
2022-08-20T03:46:26.455Z,28.80
2022-08-20T03:47:49.741Z,34.00
2022-08-20T03:49:11.869Z,34.77
2022-08-20T03:50:35.009Z,33.63
2022-08-20T03:51:58.183Z,38.93
2022-08-20T03:53:21.119Z,34.73
2022-08-20T03:54:46.062Z,37.23
2022-08-20T03:56:08.312Z,36.13
2022-08-20T03:57:30.507Z,37.40
2022-08-20T03:58:52.767Z,37.50
2022-08-20T04:00:18.123Z,34.90
2022-08-20T04:01:46.136Z,33.50
2022-08-20T04:03:10.127Z,33.87
2022-08-20T04:04:32.458Z,30.53
2022-08-20T04:05:54.536Z,40.40
2022-08-20T04:07:25.779Z,41.80
2022-08-20T04:08:47.973Z,34.03
2022-08-20T04:10:12.154Z,35.17
2022-08-20T04:11:34.417Z,41.77
2022-08-20T04:12:56.499Z,32.60
2022-08-20T04:14:20.640Z,41.70
2022-08-20T04:15:45.113Z,41.00
2022-08-20T04:17:10.004Z,39.07
2022-08-20T04:18:32.964Z,39.93
2022-08-20T04:19:54.981Z,38.00
2022-08-20T04:21:17.159Z,41.40
2022-08-20T04:22:40.149Z,40.50
2022-08-20T04:24:04.512Z,41.07
2022-08-20T04:25:36.133Z,39.27
2022-08-20T04:26:58.961Z,45.43
2022-08-20T04:28:27.253Z,45.60
2022-08-20T04:29:49.432Z,41.13
2022-08-20T04:31:14.151Z,46.73
2022-08-20T04:32:36.912Z,44.87
2022-08-20T04:34:07.700Z,42.90
2022-08-20T04:35:30.876Z,51.33
2022-08-20T04:36:53.079Z,46.43
2022-08-20T04:38:18.923Z,41.40
2022-08-20T04:39:41.039Z,49.13
2022-08-20T04:41:03.158Z,51.17
2022-08-20T04:42:25.286Z,49.83
2022-08-20T04:43:47.404Z,53.13
2022-08-20T04:45:09.882Z,53.90
2022-08-20T04:46:32.665Z,51.00
2022-08-20T04:47:55.212Z,52.60
2022-08-20T04:49:17.408Z,47.90
2022-08-20T04:50:42.303Z,49.90
2022-08-20T04:52:04.498Z,55.83
2022-08-20T04:53:28.099Z,51.37
2022-08-20T04:54:50.170Z,50.23
2022-08-20T04:56:12.731Z,48.23
2022-08-20T04:57:38.540Z,49.30
2022-08-20T04:59:01.892Z,47.17
2022-08-20T05:00:24.194Z,50.33
2022-08-20T05:01:46.251Z,49.13
2022-08-20T05:03:08.986Z,49.47
2022-08-20T05:04:31.060Z,46.90
2022-08-20T05:05:53.637Z,50.77
2022-08-20T05:07:21.328Z,48.90
2022-08-20T05:08:44.392Z,48.40
2022-08-20T05:10:07.214Z,50.87
2022-08-20T05:11:33.946Z,47.40
2022-08-20T05:12:57.459Z,47.00
2022-08-20T05:14:19.838Z,53.10
2022-08-20T05:15:42.296Z,54.77
2022-08-20T05:17:05.591Z,51.00
2022-08-20T05:18:28.220Z,54.13
2022-08-20T05:19:52.382Z,52.00
2022-08-20T05:21:15.638Z,51.03
2022-08-20T05:22:37.824Z,53.87
2022-08-20T05:24:00.390Z,55.50
2022-08-20T05:25:22.606Z,53.73
2022-08-20T05:26:44.878Z,53.93
2022-08-20T05:28:18.315Z,51.30
2022-08-20T05:29:42.075Z,46.10
2022-08-20T05:31:07.145Z,53.43
2022-08-20T05:32:30.225Z,46.20
2022-08-20T05:33:52.386Z,44.33
2022-08-20T05:35:14.715Z,49.97
2022-08-20T05:36:41.077Z,42.93
2022-08-20T05:38:03.196Z,44.83
2022-08-20T05:39:25.355Z,45.50
2022-08-20T05:40:48.681Z,45.57
2022-08-20T05:42:11.264Z,48.33
2022-08-20T05:43:33.901Z,53.90
2022-08-20T05:44:55.997Z,46.10
2022-08-20T05:46:18.149Z,49.83
2022-08-20T05:47:42.712Z,49.10
2022-08-20T05:49:05.062Z,54.00
2022-08-20T05:50:27.170Z,49.43
2022-08-20T05:51:51.302Z,51.20
2022-08-20T05:53:13.374Z,46.30
2022-08-20T05:54:37.587Z,49.03
2022-08-20T05:56:00.900Z,49.30
2022-08-20T05:57:23.129Z,51.17
2022-08-20T05:58:45.209Z,49.70
2022-08-20T06:00:10.643Z,47.37
2022-08-20T06:01:34.773Z,60.07
2022-08-20T06:03:16.073Z,46.07
2022-08-20T06:04:38.119Z,45.90
2022-08-20T06:06:00.443Z,40.23
2022-08-20T06:07:22.954Z,40.00
2022-08-20T06:08:45.017Z,45.20
2022-08-20T06:10:09.193Z,49.87
2022-08-20T06:11:36.433Z,44.10
2022-08-20T06:12:59.313Z,47.47
2022-08-20T06:14:21.974Z,45.03
2022-08-20T06:15:44.040Z,49.70
2022-08-20T06:17:15.543Z,46.53
2022-08-20T06:18:37.705Z,44.73
2022-08-20T06:20:02.706Z,45.63
2022-08-20T06:21:26.206Z,43.70
2022-08-20T06:22:48.417Z,49.50
2022-08-20T06:24:10.519Z,46.57
2022-08-20T06:25:37.827Z,50.13
2022-08-20T06:27:02.287Z,50.37
2022-08-20T06:28:24.598Z,55.90
2022-08-20T06:29:47.627Z,53.07
2022-08-20T06:31:11.367Z,50.10
2022-08-20T06:32:33.660Z,54.50
2022-08-20T06:33:56.294Z,56.27
2022-08-20T06:35:20.118Z,58.07
2022-08-20T06:36:42.318Z,55.73
2022-08-20T06:38:05.899Z,62.43
2022-08-20T06:39:31.071Z,57.43
2022-08-20T06:40:53.150Z,59.17
2022-08-20T06:42:20.638Z,62.40
2022-08-20T06:43:43.170Z,54.73
2022-08-20T06:45:05.871Z,65.63
2022-08-20T06:46:27.990Z,58.30
2022-08-20T06:47:50.930Z,53.60
2022-08-20T06:49:13.443Z,52.50
2022-08-20T06:50:47.048Z,55.30
2022-08-20T06:52:10.135Z,59.73
2022-08-20T06:53:33.922Z,56.43
2022-08-20T06:54:56.185Z,60.23
2022-08-20T06:56:18.369Z,51.33
2022-08-20T06:57:41.244Z,50.27
2022-08-20T06:59:03.491Z,51.27
2022-08-20T07:00:26.468Z,55.17
2022-08-20T07:01:51.175Z,47.93
2022-08-20T07:03:14.408Z,47.43
2022-08-20T07:04:37.424Z,49.47
2022-08-20T07:05:59.842Z,52.53
2022-08-20T07:07:22.063Z,53.47
2022-08-20T07:08:44.739Z,53.70
2022-08-20T07:10:09.141Z,51.90
2022-08-20T07:11:31.221Z,52.53
2022-08-20T07:12:53.365Z,53.73
2022-08-20T07:14:16.546Z,54.00
2022-08-20T07:15:39.075Z,53.90
2022-08-20T07:17:03.679Z,52.33
2022-08-20T07:18:28.496Z,56.80
2022-08-20T07:19:51.083Z,49.27
2022-08-20T07:21:13.242Z,49.63
2022-08-20T07:22:36.938Z,49.07
2022-08-20T07:23:59.037Z,47.57
2022-08-20T07:25:22.266Z,49.53
2022-08-20T07:26:44.357Z,50.10
2022-08-20T07:28:31.932Z,48.17
2022-08-20T07:30:20.075Z,48.93
2022-08-20T07:32:00.979Z,51.17
2022-08-20T07:33:23.065Z,44.83
2022-08-20T07:34:45.606Z,42.03
2022-08-20T07:36:11.456Z,42.30
2022-08-20T07:37:42.386Z,42.03
2022-08-20T07:39:06.431Z,39.97
2022-08-20T07:40:31.618Z,38.10
2022-08-20T07:42:03.294Z,38.17
2022-08-20T07:43:26.097Z,42.80
2022-08-20T07:44:48.845Z,41.70
2022-08-20T07:46:11.554Z,38.80
2022-08-20T07:47:36.043Z,38.13
2022-08-20T07:48:58.563Z,33.90
2022-08-20T07:50:26.794Z,40.47
2022-08-20T07:51:48.933Z,41.93
2022-08-20T07:53:12.124Z,34.73
2022-08-20T07:54:35.764Z,37.77
2022-08-20T07:55:59.270Z,31.00
2022-08-20T07:57:21.607Z,31.63
2022-08-20T07:58:50.512Z,30.10
2022-08-20T08:00:14.599Z,31.93
2022-08-20T08:01:36.848Z,27.17
2022-08-20T08:02:59.190Z,28.60
2022-08-20T08:04:21.320Z,33.23
2022-08-20T08:05:48.082Z,28.83
2022-08-20T08:07:10.497Z,29.30
2022-08-20T08:08:33.262Z,28.20
2022-08-20T08:09:57.000Z,30.87
2022-08-20T08:11:19.502Z,24.17
2022-08-20T08:12:48.251Z,25.90
2022-08-20T08:14:11.555Z,19.40
2022-08-20T08:15:40.831Z,25.33
2022-08-20T08:17:04.642Z,23.47
2022-08-20T08:18:31.953Z,18.10
2022-08-20T08:19:54.624Z,24.27
2022-08-20T08:21:17.775Z,18.07
2022-08-20T08:22:43.031Z,20.77
2022-08-20T08:24:05.294Z,22.40
2022-08-20T08:25:27.580Z,18.20
2022-08-20T08:26:50.118Z,18.07
2022-08-20T08:28:13.680Z,18.57
2022-08-20T08:29:37.185Z,17.60
2022-08-20T08:30:59.318Z,20.93
2022-08-20T08:32:24.593Z,15.63
2022-08-20T08:33:46.728Z,15.50
2022-08-20T08:35:09.354Z,16.80
2022-08-20T08:36:31.383Z,16.63
2022-08-20T08:37:54.094Z,14.63
2022-08-20T08:39:16.446Z,15.07
2022-08-20T08:40:38.598Z,18.90
2022-08-20T08:42:03.442Z,15.00
2022-08-20T08:43:27.859Z,17.93
2022-08-20T08:44:54.545Z,19.60
2022-08-20T08:46:21.526Z,18.40
2022-08-20T08:47:45.255Z,15.10
2022-08-20T08:49:10.148Z,14.13
2022-08-20T08:50:53.917Z,16.07
2022-08-20T08:52:22.316Z,14.50
2022-08-20T08:53:54.686Z,15.87
2022-08-20T08:55:20.450Z,15.23
2022-08-20T08:56:43.358Z,13.17
2022-08-20T08:58:16.563Z,16.03
2022-08-20T08:59:52.474Z,15.03
2022-08-20T09:01:53.020Z,14.60
2022-08-20T09:03:12.496Z,13.60
2022-08-20T09:04:40.498Z,13.67
2022-08-20T09:06:03.631Z,12.40
2022-08-20T09:07:32.465Z,14.33
2022-08-20T09:08:57.770Z,11.53
2022-08-20T09:10:22.916Z,11.37
2022-08-20T09:11:49.484Z,15.07
2022-08-20T09:13:12.225Z,12.53
2022-08-20T09:14:34.808Z,14.60
2022-08-20T09:15:57.060Z,15.83
2022-08-20T09:17:21.398Z,11.97
2022-08-20T09:18:43.662Z,12.90
2022-08-20T09:20:06.194Z,14.27
2022-08-20T09:21:28.261Z,12.07
2022-08-20T09:22:50.611Z,13.10
2022-08-20T09:24:14.180Z,15.80
2022-08-20T09:25:36.697Z,15.03
2022-08-20T09:26:58.750Z,13.70
2022-08-20T09:28:20.811Z,15.27
2022-08-20T09:29:43.645Z,15.10
2022-08-20T09:31:06.990Z,11.70
2022-08-20T09:32:29.151Z,12.80
2022-08-20T09:33:52.524Z,14.57
2022-08-20T09:35:15.487Z,11.23
2022-08-20T09:36:37.565Z,16.53
2022-08-20T09:38:00.016Z,15.43
2022-08-20T09:39:22.119Z,11.50
2022-08-20T09:40:44.576Z,13.37
2022-08-20T09:42:12.055Z,14.17
2022-08-20T09:43:34.074Z,11.17
2022-08-20T09:44:56.781Z,12.07
2022-08-20T09:46:18.878Z,13.40
2022-08-20T09:47:54.761Z,12.00
2022-08-20T09:49:18.807Z,9.93
2022-08-20T09:50:46.014Z,9.93
2022-08-20T09:52:10.391Z,10.27
2022-08-20T09:53:32.808Z,13.33
2022-08-20T09:54:59.212Z,10.23
2022-08-20T09:56:22.932Z,12.60
2022-08-20T09:57:45.068Z,10.10
2022-08-20T09:59:07.297Z,9.23
2022-08-20T10:00:29.562Z,9.27
2022-08-20T10:01:51.708Z,8.17
2022-08-20T10:03:14.595Z,10.90
2022-08-20T10:04:36.834Z,10.43
2022-08-20T10:05:59.888Z,9.50
2022-08-20T10:07:22.061Z,8.73
2022-08-20T10:08:44.472Z,8.13
2022-08-20T10:10:09.694Z,10.50
2022-08-20T10:11:31.790Z,7.13
2022-08-20T10:12:54.993Z,11.17
2022-08-20T10:14:17.399Z,7.47
2022-08-20T10:15:39.441Z,8.27
2022-08-20T10:17:04.408Z,7.83
2022-08-20T10:18:29.535Z,11.40
2022-08-20T10:19:51.592Z,7.43
2022-08-20T10:21:13.616Z,11.23
2022-08-20T10:22:36.386Z,13.30
2022-08-20T10:23:58.538Z,11.03
2022-08-20T10:25:20.846Z,9.00
2022-08-20T10:26:42.951Z,8.97
2022-08-20T10:28:05.852Z,8.97
2022-08-20T10:29:29.957Z,6.53
2022-08-20T10:30:52.019Z,6.40
2022-08-20T10:32:16.134Z,6.57
2022-08-20T10:33:39.646Z,7.10
2022-08-20T10:35:02.261Z,7.73
2022-08-20T10:36:24.343Z,6.43
2022-08-20T10:37:46.620Z,5.77
2022-08-20T10:39:08.921Z,8.43
2022-08-20T10:40:31.045Z,8.50
2022-08-20T10:41:53.099Z,5.93
2022-08-20T10:43:15.138Z,7.13
2022-08-20T10:44:39.016Z,5.67
2022-08-20T10:46:01.319Z,7.87
2022-08-20T10:47:29.283Z,5.07
2022-08-20T10:48:51.619Z,8.03
2022-08-20T10:50:16.632Z,7.60
2022-08-20T10:51:38.879Z,7.03
2022-08-20T10:53:01.442Z,4.70
2022-08-20T10:54:23.524Z,8.77
2022-08-20T10:55:45.726Z,4.53
2022-08-20T10:57:15.175Z,4.23
2022-08-20T10:58:39.412Z,3.57
2022-08-20T11:00:03.237Z,3.10
2022-08-20T11:01:31.283Z,5.47
2022-08-20T11:02:55.359Z,5.10
2022-08-20T11:04:17.415Z,3.37
2022-08-20T11:05:39.589Z,3.70
2022-08-20T11:07:20.383Z,2.70
2022-08-20T11:08:42.607Z,3.93
2022-08-20T11:10:09.342Z,2.93
2022-08-20T11:11:35.240Z,3.50
2022-08-20T11:12:57.319Z,2.40
2022-08-20T11:14:19.422Z,2.33
2022-08-20T11:15:43.443Z,2.50
2022-08-20T11:17:06.178Z,7.87
2022-08-20T11:18:28.781Z,3.50
2022-08-20T11:19:51.881Z,3.27
2022-08-20T11:21:14.016Z,3.67
2022-08-20T11:22:36.702Z,2.43
2022-08-20T11:24:02.700Z,6.30
2022-08-20T11:25:25.817Z,2.20
2022-08-20T11:26:49.573Z,3.40
2022-08-20T11:28:12.974Z,3.27
2022-08-20T11:29:36.403Z,4.13
2022-08-20T11:31:00.241Z,4.60
2022-08-20T11:32:23.027Z,2.60
2022-08-20T11:33:45.025Z,2.97
2022-08-20T11:35:38.331Z,3.50
2022-08-20T11:36:49.863Z,3.00
2022-08-20T11:38:12.143Z,2.80
2022-08-20T11:39:36.575Z,2.90
2022-08-20T11:41:00.605Z,3.10
2022-08-20T11:42:22.693Z,3.57
2022-08-20T11:43:59.555Z,4.63
2022-08-20T11:45:26.846Z,2.90
2022-08-20T11:46:49.344Z,3.43
2022-08-20T11:48:11.379Z,5.93
2022-08-20T11:49:35.835Z,6.63
2022-08-20T11:50:57.851Z,3.77
2022-08-20T11:52:19.918Z,4.40
2022-08-20T11:53:42.002Z,3.47
2022-08-20T11:55:06.246Z,3.00
2022-08-20T11:56:30.251Z,4.57
2022-08-20T11:57:52.385Z,4.43
2022-08-20T11:59:14.491Z,4.00
2022-08-20T12:00:37.082Z,9.30
2022-08-20T12:02:02.923Z,6.00
2022-08-20T12:03:25.756Z,5.13
2022-08-20T12:04:48.716Z,5.57
2022-08-20T12:06:10.775Z,5.83
2022-08-20T12:07:32.958Z,6.93
2022-08-20T12:08:55.064Z,5.37
2022-08-20T12:10:17.159Z,7.27
2022-08-20T12:11:39.288Z,4.43
2022-08-20T12:13:02.734Z,6.03
2022-08-20T12:14:27.294Z,5.30
2022-08-20T12:15:50.258Z,4.93
2022-08-20T12:17:19.856Z,4.77
2022-08-20T12:18:42.030Z,5.73
2022-08-20T12:20:08.957Z,4.83
2022-08-20T12:21:32.518Z,8.27
2022-08-20T12:22:54.656Z,6.83
2022-08-20T12:24:16.832Z,6.43
2022-08-20T12:25:39.076Z,5.27
2022-08-20T12:27:12.738Z,5.67
2022-08-20T12:28:34.931Z,7.53
2022-08-20T12:30:00.347Z,5.90
2022-08-20T12:31:22.453Z,6.50
2022-08-20T12:32:44.806Z,6.67
2022-08-20T12:34:07.022Z,7.23
2022-08-20T12:35:29.734Z,16.63
2022-08-20T12:37:01.428Z,7.33
2022-08-20T12:38:23.598Z,6.47
2022-08-20T12:39:48.838Z,5.33
2022-08-20T12:41:10.960Z,6.77
2022-08-20T12:42:33.020Z,8.73
2022-08-20T12:43:55.054Z,8.23
2022-08-20T12:45:18.094Z,5.80
2022-08-20T12:46:40.116Z,9.50
2022-08-20T12:48:12.258Z,8.87
2022-08-20T12:49:34.553Z,7.80
2022-08-20T12:50:56.686Z,7.93
2022-08-20T12:52:20.738Z,8.53
2022-08-20T12:53:42.900Z,8.90
2022-08-20T12:55:06.294Z,8.97
2022-08-20T12:56:28.340Z,6.80
2022-08-20T12:57:54.041Z,6.63
2022-08-20T12:59:16.086Z,9.10
2022-08-20T13:00:45.960Z,8.60
2022-08-20T13:02:14.235Z,5.90
2022-08-20T13:03:40.927Z,7.27
2022-08-20T13:05:09.349Z,7.37
2022-08-20T13:06:31.370Z,9.27
2022-08-20T13:07:53.950Z,7.63
2022-08-20T13:09:17.434Z,6.50
2022-08-20T13:10:44.401Z,6.40
2022-08-20T13:12:07.229Z,11.40
2022-08-20T13:13:29.346Z,9.57
2022-08-20T13:14:51.414Z,10.00
2022-08-20T13:16:14.396Z,9.17
2022-08-20T13:17:38.695Z,8.80
2022-08-20T13:19:01.805Z,8.63
2022-08-20T13:20:27.001Z,11.50
2022-08-20T13:21:56.935Z,6.20
2022-08-20T13:23:19.040Z,8.93
2022-08-20T13:24:41.439Z,10.60
2022-08-20T13:26:05.173Z,7.20
2022-08-20T13:27:27.734Z,11.53
2022-08-20T13:28:49.875Z,5.63
2022-08-20T13:30:15.887Z,10.50
2022-08-20T13:31:38.039Z,7.60
2022-08-20T13:33:00.179Z,7.83
2022-08-20T13:34:22.228Z,7.70
2022-08-20T13:35:44.396Z,10.63
2022-08-20T13:37:23.101Z,8.53
2022-08-20T13:38:47.215Z,7.10
2022-08-20T13:40:10.384Z,6.80
2022-08-20T13:41:32.952Z,9.30
2022-08-20T13:42:55.319Z,7.30
2022-08-20T13:44:18.325Z,5.73
2022-08-20T13:45:41.360Z,6.50
2022-08-20T13:47:25.224Z,5.80
2022-08-20T13:48:47.356Z,5.37
2022-08-20T13:50:15.203Z,6.93
2022-08-20T13:51:37.308Z,9.23
2022-08-20T13:52:59.421Z,5.70
2022-08-20T13:54:21.489Z,7.17
2022-08-20T13:55:44.833Z,4.40
2022-08-20T13:57:15.215Z,7.83
2022-08-20T13:58:37.325Z,5.53
2022-08-20T13:59:59.394Z,6.37
2022-08-20T14:01:21.547Z,5.77
2022-08-20T14:02:43.872Z,5.80
2022-08-20T14:04:06.155Z,4.67
2022-08-20T14:05:29.277Z,6.40
2022-08-20T14:06:51.372Z,4.53
2022-08-20T14:08:21.479Z,6.80
2022-08-20T14:09:49.097Z,6.90
2022-08-20T14:11:12.855Z,5.67
2022-08-20T14:12:39.785Z,6.77
2022-08-20T14:14:02.701Z,4.43
2022-08-20T14:15:24.805Z,4.73
2022-08-20T14:16:47.019Z,5.77
2022-08-20T14:18:09.370Z,5.03
2022-08-20T14:19:31.458Z,6.47
2022-08-20T14:20:53.679Z,5.80
2022-08-20T14:22:19.120Z,4.10
2022-08-20T14:23:43.905Z,6.20
2022-08-20T14:25:07.773Z,6.13
2022-08-20T14:26:29.887Z,4.33
2022-08-20T14:27:53.578Z,4.83
2022-08-20T14:29:19.598Z,5.97
2022-08-20T14:30:42.495Z,7.30
2022-08-20T14:32:05.829Z,6.23
2022-08-20T14:33:27.956Z,4.40
2022-08-20T14:34:50.104Z,5.10
2022-08-20T14:36:12.189Z,5.47
2022-08-20T14:37:39.146Z,4.03
2022-08-20T14:39:01.194Z,5.90
2022-08-20T14:40:26.023Z,4.53
2022-08-20T14:41:48.309Z,6.10
2022-08-20T14:43:10.397Z,5.43
2022-08-20T14:44:32.534Z,4.10
2022-08-20T14:45:54.600Z,5.27
2022-08-20T14:47:24.449Z,5.00
2022-08-20T14:48:46.624Z,6.00
2022-08-20T14:50:31.587Z,5.40
2022-08-20T14:51:53.763Z,3.83
2022-08-20T14:53:15.948Z,4.50
2022-08-20T14:54:38.419Z,4.70
2022-08-20T14:56:01.028Z,5.07
2022-08-20T14:57:23.591Z,4.30
2022-08-20T14:58:45.694Z,6.00
2022-08-20T15:00:11.338Z,5.43
2022-08-20T15:01:33.505Z,3.97
2022-08-20T15:02:57.016Z,5.10
2022-08-20T15:04:19.396Z,4.93
2022-08-20T15:05:42.025Z,10.83
2022-08-20T15:07:11.146Z,4.10
2022-08-20T15:08:35.400Z,5.50
2022-08-20T15:10:04.976Z,6.07
2022-08-20T15:11:28.690Z,7.27
2022-08-20T15:12:55.080Z,4.57
2022-08-20T15:14:18.495Z,5.67
2022-08-20T15:15:41.735Z,6.57
2022-08-20T15:17:04.048Z,4.37
2022-08-20T15:18:26.966Z,6.93
2022-08-20T15:19:49.414Z,5.83
2022-08-20T15:21:11.572Z,8.03
2022-08-20T15:22:33.722Z,6.03
2022-08-20T15:23:55.820Z,9.03
2022-08-20T15:25:21.412Z,4.73
2022-08-20T15:26:45.686Z,5.90
2022-08-20T15:28:09.851Z,4.33
2022-08-20T15:29:32.402Z,7.03
2022-08-20T15:30:54.467Z,6.20
2022-08-20T15:32:16.762Z,7.30
2022-08-20T15:33:39.743Z,4.70
2022-08-20T15:35:02.064Z,7.17
2022-08-20T15:36:24.423Z,5.10
2022-08-20T15:37:50.499Z,12.93
2022-08-20T15:39:13.000Z,7.27
2022-08-20T15:40:35.279Z,9.90
2022-08-20T15:41:57.408Z,6.53
2022-08-20T15:43:19.515Z,5.33
2022-08-20T15:44:42.882Z,6.43
2022-08-20T15:46:06.395Z,6.07
2022-08-20T15:47:31.775Z,4.30
2022-08-20T15:48:53.975Z,5.27
2022-08-20T15:50:31.367Z,6.13
2022-08-20T15:51:53.478Z,7.13
2022-08-20T15:53:42.540Z,6.23
2022-08-20T15:55:07.485Z,6.60
2022-08-20T15:57:03.302Z,5.73
2022-08-20T15:58:37.558Z,5.10
2022-08-20T15:59:59.824Z,8.33
2022-08-20T16:01:34.376Z,5.80
2022-08-20T16:03:18.512Z,5.77
2022-08-20T16:05:07.680Z,8.67
2022-08-20T16:06:32.916Z,6.23
2022-08-20T16:08:07.291Z,5.80
2022-08-20T16:09:47.972Z,7.93
2022-08-20T16:11:20.079Z,7.40
2022-08-20T16:12:43.859Z,5.50
2022-08-20T16:14:18.565Z,6.33
2022-08-20T16:15:48.880Z,5.60
2022-08-20T16:17:17.174Z,5.60
2022-08-20T16:18:40.767Z,4.57
2022-08-20T16:20:21.511Z,4.20
2022-08-20T16:21:46.161Z,5.20
2022-08-20T16:23:10.781Z,5.37
2022-08-20T16:24:33.210Z,4.77
2022-08-20T16:26:30.872Z,4.90
2022-08-20T16:28:12.947Z,4.90
2022-08-20T16:30:12.549Z,5.03
2022-08-20T16:31:49.419Z,2.80
2022-08-20T16:33:34.481Z,4.37
2022-08-20T16:34:56.606Z,4.13
2022-08-20T16:36:34.733Z,3.07
2022-08-20T16:37:59.995Z,3.83
2022-08-20T16:39:26.494Z,5.60
2022-08-20T16:40:56.198Z,4.50
2022-08-20T16:42:23.286Z,2.90
2022-08-20T16:44:15.106Z,7.53
2022-08-20T16:46:04.202Z,3.03
2022-08-20T16:47:30.680Z,2.73
2022-08-20T16:48:58.399Z,5.17
2022-08-20T16:50:31.522Z,3.23
2022-08-20T16:51:54.048Z,2.50
2022-08-20T16:53:22.506Z,4.90
2022-08-20T16:54:44.965Z,6.17
2022-08-20T16:56:07.497Z,4.63
2022-08-20T16:57:29.821Z,5.23
2022-08-20T16:58:51.888Z,7.53
2022-08-20T17:00:26.209Z,5.00
2022-08-20T17:02:21.706Z,13.50
2022-08-20T17:03:50.925Z,4.30
2022-08-20T17:05:13.056Z,3.67
2022-08-20T17:06:43.305Z,6.03
2022-08-20T17:08:15.135Z,3.53
2022-08-20T17:09:44.291Z,10.63
2022-08-20T17:11:14.054Z,4.13
2022-08-20T17:12:36.456Z,4.97
2022-08-20T17:14:14.150Z,6.27
2022-08-20T17:15:36.344Z,5.77
2022-08-20T17:16:58.452Z,6.00
2022-08-20T17:18:26.482Z,4.63
2022-08-20T17:20:01.637Z,4.80
2022-08-20T17:21:23.689Z,2.83
2022-08-20T17:22:52.273Z,4.70
2022-08-20T17:24:30.868Z,5.07
2022-08-20T17:26:02.859Z,3.17
2022-08-20T17:27:39.656Z,2.43
2022-08-20T17:29:12.803Z,3.90
2022-08-20T17:30:38.399Z,3.23
2022-08-20T17:32:15.110Z,3.40
2022-08-20T17:33:39.594Z,4.33
2022-08-20T17:35:04.533Z,3.63
2022-08-20T17:36:27.331Z,3.80
2022-08-20T17:37:53.976Z,4.33
2022-08-20T17:39:19.005Z,3.03
2022-08-20T17:40:47.051Z,5.30
2022-08-20T17:42:14.679Z,3.60
2022-08-20T17:43:43.384Z,3.47
2022-08-20T17:45:13.505Z,9.93
2022-08-20T17:46:43.230Z,4.50
2022-08-20T17:48:10.762Z,2.83
2022-08-20T17:49:35.043Z,5.70
2022-08-20T17:50:59.484Z,5.33
2022-08-20T17:52:34.452Z,4.40
2022-08-20T17:54:13.449Z,4.87
2022-08-20T17:55:36.545Z,1.80
2022-08-20T17:57:03.631Z,3.50
2022-08-20T17:58:55.081Z,2.83
2022-08-20T18:00:26.714Z,3.20
2022-08-20T18:01:48.859Z,3.77
2022-08-20T18:03:19.801Z,3.27
2022-08-20T18:04:42.667Z,2.63
2022-08-20T18:06:37.324Z,3.37
2022-08-20T18:08:30.790Z,2.70
2022-08-20T18:10:14.382Z,2.30
2022-08-20T18:11:36.472Z,5.13
2022-08-20T18:13:16.826Z,5.37
2022-08-20T18:15:06.542Z,4.40
2022-08-20T18:16:45.379Z,5.43
2022-08-20T18:18:56.520Z,6.03
2022-08-20T18:20:56.301Z,7.03
2022-08-20T18:22:27.925Z,4.53
2022-08-20T18:24:01.687Z,3.90
2022-08-20T18:25:38.826Z,2.63
2022-08-20T18:27:09.956Z,4.03
2022-08-20T18:28:41.236Z,8.43
2022-08-20T18:30:04.318Z,4.57
2022-08-20T18:31:32.157Z,4.17
2022-08-20T18:33:07.332Z,5.43
2022-08-20T18:34:29.614Z,2.90
2022-08-20T18:36:02.281Z,7.20
2022-08-20T18:37:27.654Z,4.67